LIEO Airport Information

Runway Information
Runway 05 Length 9006 ft width 148 ft
Elevation 35 ft Threshold 805 ft Heading 53
Runway 23 Length 9006 ft Width 148 ft
Elevation 19 ft Threshold 495 ft Heading 233
Airport Frequencies
Type APP Name OLBIA RADA Frequency 125.95 MHZ
Type ATIS Name ATIS Frequency 113.9 MHZ
Type TWR Name OLBIA TWR Frequency 118.975 MHZ
Airport Navaids
Type VOR-DME Name Olbia Costa Smeralda Frequency 113900 KHZ
Type NDB Name Olbia Costa Smeralda Frequency 357 KHZ
Airport Weather Information & NOTAM
ADDS - METARS form results

(2135 UTC 29 June 2022)
Data provider http://aviationweather.gov/metar/data/
 
METAR text: LIEO 292120Z 24003KT CAVOK 24/16 Q1013
Conditions at: LIEO (OLBIA/COSTA SMER, IT) observed 2120 UTC 29 June 2022
Temperature: 24.0°C (75°F)
Dewpoint: 16.0°C (61°F) [RH = 61%]
Pressure (altimeter): 29.91 inches Hg (1013.0 mb)
Winds: from the WSW (240 degrees) at 3 MPH (3 knots; 1.5 m/s)
Visibility: 6 or more miles (10+ km)
Ceiling: ceiling and visibility are OK
Clouds: unknown
Weather: no significant weather observed at this time

METAR text: LIEO 292050Z 27003KT 200V330 CAVOK 25/16 Q1013
Conditions at: LIEO (OLBIA/COSTA SMER, IT) observed 2050 UTC 29 June 2022
Temperature: 25.0°C (77°F)
Dewpoint: 16.0°C (61°F) [RH = 57%]
Pressure (altimeter): 29.91 inches Hg (1013.0 mb)
Winds: from the W (270 degrees) at 3 MPH (3 knots; 1.5 m/s)
Visibility: 6 or more miles (10+ km)
Ceiling: ceiling and visibility are OK
Clouds: unknown
Weather: no significant weather observed at this time

Forecast for: LIEO (OLBIA/COSTA SMER, IT)
Text: TAF LIEO 291700Z 2918/3018 08010KT CAVOK
Forecast period: 1800 to 1900 UTC 29 June 2022
Forecast type: FROM: standard forecast or significant change
Winds: from the E (80 degrees) at 12 MPH (10 knots; 5.1 m/s)
Visibility: 6 or more miles (10+ km)
Ceiling: unknown
Clouds: missing
Weather: NSW  (no significant weather)
Text: BECMG 2919/2921 25008KT
Forecast period: 1900 UTC 29 June 2022 to 0900 UTC 30 June 2022
Forecast type: BECOMING: Conditions expected to become as follows by 2100 UTC 29 June 2022
Winds: from the WSW (250 degrees) at 9 MPH (8 knots; 4.1 m/s)
Visibility: 6 or more miles (10+ km)
Ceiling: unknown
Clouds: missing
Weather: NSW  (no significant weather)
Text: BECMG 3009/3011 06012KT
Forecast period: 0900 to 1800 UTC 30 June 2022
Forecast type: BECOMING: Conditions expected to become as follows by 1100 UTC 30 June 2022
Winds: from the ENE (60 degrees) at 14 MPH (12 knots; 6.2 m/s)
Visibility: 6 or more miles (10+ km)
Ceiling: unknown
Clouds: missing
Weather: NSW  (no significant weather)